Time;durP1;ratioP1;P1;durP2;ratioP2;P2;SDS_P1;SDS_P2;PMS_P1;PMS_P2;Temp;Humidity;BMP_temperature;BMP_pressure;BME280_temperature;BME280_humidity;BME280_pressure;Samples;Min_cycle;Max_cycle;Signal;HPM_P1;HPM_P2
2022/12/10 00:01:15;;;;;;;63.93;29.90;;;1.70;99.90;;;;;;5072898;28;20185;-59
2022/12/10 00:03:41;;;;;;;78.90;30.83;;;1.90;99.90;;;;;;5073031;28;20205;-60
2022/12/10 00:06:10;;;;;;;70.00;29.00;;;1.90;99.90;;;;;;5073028;28;20178;-59
2022/12/10 00:08:36;;;;;;;72.70;31.67;;;2.00;99.90;;;;;;5072865;28;20177;-60
2022/12/10 00:11:04;;;;;;;68.87;29.50;;;1.90;99.90;;;;;;5072774;28;20205;-60
2022/12/10 00:13:30;;;;;;;66.67;30.63;;;2.10;99.90;;;;;;5072545;28;20246;-60
2022/12/10 00:15:58;;;;;;;73.83;31.60;;;2.10;99.90;;;;;;5072931;28;20645;-59
2022/12/10 00:18:24;;;;;;;97.03;31.47;;;2.00;99.90;;;;;;5072850;28;20170;-60
2022/12/10 00:20:49;;;;;;;66.10;30.73;;;2.00;99.90;;;;;;5072822;28;20174;-60
2022/12/10 00:23:16;;;;;;;75.50;31.37;;;2.10;99.90;;;;;;5072596;28;20320;-60
2022/12/10 00:25:41;;;;;;;76.27;31.53;;;2.10;99.90;;;;;;5072880;28;20715;-60
2022/12/10 00:28:07;;;;;;;71.77;30.53;;;2.10;99.90;;;;;;5072526;28;20270;-60
2022/12/10 00:30:33;;;;;;;71.97;31.37;;;2.30;99.90;;;;;;5071593;28;20174;-60
2022/12/10 00:32:59;;;;;;;81.77;32.43;;;2.30;99.90;;;;;;5072589;28;20242;-60
2022/12/10 00:35:24;;;;;;;89.80;31.83;;;2.30;99.90;;;;;;5072660;28;20645;-60
2022/12/10 00:37:50;;;;;;;70.50;31.20;;;2.30;99.90;;;;;;5072699;28;20689;-60
2022/12/10 00:40:20;;;;;;;73.87;31.43;;;2.40;99.90;;;;;;5072565;28;20288;-60
2022/12/10 00:42:46;;;;;;;79.13;32.03;;;2.40;99.90;;;;;;5072388;28;20254;-60
2022/12/10 00:45:11;;;;;;;80.13;31.77;;;2.40;99.90;;;;;;5072618;28;20284;-59
2022/12/10 00:47:37;;;;;;;110.83;33.80;;;2.50;99.90;;;;;;5072635;28;20339;-60
2022/12/10 00:50:03;;;;;;;145.80;34.17;;;2.20;99.90;;;;;;5073317;28;20547;-60
2022/12/10 00:52:29;;;;;;;72.80;31.50;;;2.30;99.90;;;;;;5076424;28;20219;-60
2022/12/10 00:54:54;;;;;;;70.77;31.70;;;2.50;99.90;;;;;;5076232;28;20562;-59
2022/12/10 00:57:20;;;;;;;85.77;32.90;;;2.50;99.90;;;;;;5075905;28;20189;-59
2022/12/10 00:59:45;;;;;;;100.40;33.10;;;2.50;99.90;;;;;;5076150;28;20642;-60
2022/12/10 01:02:11;;;;;;;101.03;35.53;;;2.30;99.90;;;;;;5075961;28;20212;-60
2022/12/10 01:04:37;;;;;;;110.47;33.50;;;2.30;99.90;;;;;;5076249;28;20181;-60
2022/12/10 01:07:02;;;;;;;80.07;31.70;;;2.00;99.90;;;;;;5075768;28;20174;-60
2022/12/10 01:09:30;;;;;;;108.63;33.47;;;2.20;99.90;;;;;;5075555;28;20182;-60
2022/12/10 01:11:57;;;;;;;75.20;31.63;;;2.10;99.90;;;;;;5075598;28;20178;-60
2022/12/10 01:14:30;;;;;;;76.97;32.10;;;2.30;99.90;;;;;;5075752;28;20197;-59
2022/12/10 01:16:58;;;;;;;127.93;33.23;;;2.40;99.90;;;;;;5075748;28;20181;-60
2022/12/10 01:19:24;;;;;;;95.03;33.93;;;2.40;99.90;;;;;;5075586;28;20225;-60
2022/12/10 01:21:52;;;;;;;101.20;32.60;;;2.40;99.90;;;;;;5075422;28;20681;-60
2022/12/10 01:24:17;;;;;;;96.00;33.70;;;2.20;99.90;;;;;;5075340;28;20194;-60
2022/12/10 01:26:43;;;;;;;94.47;33.27;;;2.10;99.90;;;;;;5075475;28;20694;-59
2022/12/10 01:29:13;;;;;;;99.10;34.80;;;2.10;99.90;;;;;;5075606;28;20280;-60
2022/12/10 01:31:39;;;;;;;84.20;32.80;;;2.20;99.90;;;;;;5074494;28;20663;-60
2022/12/10 01:34:06;;;;;;;112.57;34.13;;;2.30;99.90;;;;;;5075689;28;20182;-61
2022/12/10 01:36:38;;;;;;;102.40;35.57;;;2.00;99.90;;;;;;5075259;28;20255;-60
2022/12/10 01:39:06;;;;;;;97.67;32.73;;;2.00;99.90;;;;;;5075186;28;20654;-60
2022/12/10 01:41:44;;;;;;;108.57;32.67;;;1.90;99.90;;;;;;5075298;28;20269;-60
2022/12/10 01:44:09;;;;;;;84.00;33.57;;;2.10;99.90;;;;;;5075290;28;20181;-62
2022/12/10 01:46:37;;;;;;;82.70;33.93;;;2.20;99.90;;;;;;5075121;28;20204;-60
2022/12/10 01:49:06;;;;;;;94.70;33.20;;;2.40;99.90;;;;;;5075131;28;20627;-60
2022/12/10 01:51:35;;;;;;;83.83;32.53;;;2.30;99.90;;;;;;5074835;28;20560;-60
2022/12/10 01:54:03;;;;;;;87.07;33.00;;;2.20;99.90;;;;;;5075420;28;20200;-60
2022/12/10 01:56:31;;;;;;;91.60;33.47;;;2.30;99.90;;;;;;5075032;28;20639;-60
2022/12/10 01:58:57;;;;;;;107.57;36.77;;;2.50;99.90;;;;;;5074906;28;20170;-59
2022/12/10 02:01:40;;;;;;;103.97;36.07;;;2.50;99.90;;;;;;5074354;28;20174;-60
2022/12/10 02:04:09;;;;;;;113.87;37.33;;;2.50;99.90;;;;;;5074675;28;20220;-60
2022/12/10 02:06:37;;;;;;;87.77;33.70;;;2.50;99.90;;;;;;5074867;28;20283;-60
2022/12/10 02:09:29;;;;;;;88.10;34.20;;;2.60;99.90;;;;;;5074875;28;20177;-60
2022/12/10 02:12:06;;;;;;;106.90;35.93;;;2.40;99.90;;;;;;5068774;28;20185;-60
2022/12/10 02:14:56;;;;;;;123.00;33.97;;;2.10;99.90;;;;;;5074574;28;20185;-60
2022/12/10 02:17:48;;;;;;;169.67;36.37;;;2.20;99.90;;;;;;5074686;28;20174;-59
2022/12/10 02:20:17;;;;;;;106.63;32.73;;;2.30;99.90;;;;;;5074524;28;20174;-60
2022/12/10 02:23:05;;;;;;;94.20;33.73;;;1.90;99.90;;;;;;5074168;28;20206;-59
2022/12/10 02:26:09;;;;;;;85.10;30.83;;;2.00;99.90;;;;;;5074257;28;20297;-60
2022/12/10 02:29:05;;;;;;;111.77;35.00;;;2.30;99.90;;;;;;5071955;28;20214;-60
2022/12/10 02:31:32;;;;;;;113.93;34.23;;;2.20;99.90;;;;;;5074281;28;20177;-59
2022/12/10 02:34:01;;;;;;;106.37;35.20;;;2.10;99.90;;;;;;5074274;28;20170;-60
2022/12/10 02:36:31;;;;;;;91.47;32.67;;;2.30;99.90;;;;;;5074115;28;20505;-60
2022/12/10 02:38:59;;;;;;;148.67;35.70;;;2.20;99.90;;;;;;5074217;28;20647;-60
2022/12/10 02:41:32;;;;;;;87.63;33.53;;;2.20;99.90;;;;;;5073799;28;20176;-60
2022/12/10 02:44:00;;;;;;;77.03;31.70;;;2.00;99.90;;;;;;5074164;28;20550;-60
2022/12/10 02:46:29;;;;;;;89.00;32.87;;;2.10;99.90;;;;;;5073965;28;20565;-60
2022/12/10 02:48:56;;;;;;;87.03;32.50;;;2.30;99.90;;;;;;5072751;28;20530;-59
2022/12/10 02:51:22;;;;;;;98.10;34.97;;;2.40;99.90;;;;;;5073792;28;20647;-60
2022/12/10 02:53:48;;;;;;;100.10;35.07;;;2.50;99.90;;;;;;5073589;28;20275;-60
2022/12/10 02:56:21;;;;;;;89.10;32.23;;;2.40;99.90;;;;;;5073938;28;20179;-60
2022/12/10 02:58:53;;;;;;;95.27;34.23;;;2.50;99.90;;;;;;5073894;28;20256;-60
2022/12/10 03:01:51;;;;;;;80.93;31.67;;;2.40;99.90;;;;;;5073874;28;20582;-60
2022/12/10 03:04:30;;;;;;;82.60;31.43;;;2.40;99.90;;;;;;5073551;28;20186;-60
2022/12/10 03:07:06;;;;;;;89.57;31.63;;;2.40;99.90;;;;;;5074063;28;20180;-60
2022/12/10 03:09:44;;;;;;;99.73;32.47;;;2.20;99.90;;;;;;5073962;28;20254;-60
2022/12/10 03:12:23;;;;;;;79.80;30.60;;;2.10;99.90;;;;;;5073190;28;20173;-60
2022/12/10 03:14:50;;;;;;;81.90;30.83;;;2.30;99.90;;;;;;5073290;28;20173;-60
2022/12/10 03:17:16;;;;;;;110.53;33.33;;;2.40;99.90;;;;;;5073513;28;20175;-60
2022/12/10 03:19:47;;;;;;;94.23;32.57;;;2.30;99.90;;;;;;5073567;28;20180;-59
2022/12/10 03:22:16;;;;;;;77.60;30.00;;;2.20;99.90;;;;;;5073323;28;20716;-60
2022/12/10 03:24:43;;;;;;;71.97;28.73;;;2.40;99.90;;;;;;5073299;28;20202;-60
2022/12/10 03:27:11;;;;;;;81.30;30.87;;;2.20;99.90;;;;;;5073361;28;20524;-60
2022/12/10 03:29:42;;;;;;;88.57;29.37;;;2.40;99.90;;;;;;5073488;28;20246;-60
2022/12/10 03:32:08;;;;;;;81.27;29.27;;;2.40;99.90;;;;;;5073531;28;20169;-60
2022/12/10 03:34:34;;;;;;;115.67;31.03;;;2.30;99.90;;;;;;5073441;28;20176;-60
2022/12/10 03:37:01;;;;;;;79.60;28.70;;;2.20;99.90;;;;;;5073262;28;20631;-60
2022/12/10 03:39:28;;;;;;;77.70;28.20;;;2.00;99.90;;;;;;5073225;28;20606;-60
2022/12/10 03:41:53;;;;;;;87.30;30.17;;;2.00;99.90;;;;;;5073075;28;20206;-60
2022/12/10 03:44:30;;;;;;;96.40;30.30;;;2.00;99.90;;;;;;5073181;28;20190;-60
2022/12/10 03:46:56;;;;;;;76.93;28.80;;;1.90;99.90;;;;;;5073209;28;20170;-60
2022/12/10 03:49:22;;;;;;;94.90;28.43;;;2.10;99.90;;;;;;5073108;28;20182;-60
2022/12/10 03:51:48;;;;;;;104.60;30.17;;;2.20;99.90;;;;;;5073069;28;20205;-60
2022/12/10 03:54:13;;;;;;;102.80;30.07;;;1.90;99.90;;;;;;5072800;28;20260;-60
2022/12/10 03:56:39;;;;;;;89.70;30.23;;;1.90;99.90;;;;;;5072838;28;20172;-60
2022/12/10 03:59:05;;;;;;;79.23;29.00;;;2.00;99.90;;;;;;5072917;28;20175;-60
2022/12/10 04:01:30;;;;;;;85.53;30.07;;;2.20;99.90;;;;;;5071712;28;20179;-59
2022/12/10 04:03:56;;;;;;;85.90;29.60;;;2.30;99.90;;;;;;5072934;28;20183;-59
2022/12/10 04:06:25;;;;;;;96.47;30.57;;;2.40;99.90;;;;;;5073147;28;20189;-60
2022/12/10 04:08:52;;;;;;;73.53;28.33;;;2.30;99.90;;;;;;5072789;28;20699;-60
2022/12/10 04:11:18;;;;;;;182.20;35.30;;;2.10;99.90;;;;;;5072990;28;20177;-59
2022/12/10 04:16:30;;;;;;;92.40;28.37;;;2.20;99.90;;;;;;5072993;28;20189;-60
2022/12/10 04:19:02;;;;;;;123.53;32.30;;;2.00;99.90;;;;;;5072836;28;20193;-59
2022/12/10 04:27:05;;;;;;;183.93;35.87;;;1.60;99.90;;;;;;5076648;28;20201;-60
2022/12/10 04:29:31;;;;;;;111.30;31.17;;;1.60;99.90;;;;;;5076788;28;20255;-59
2022/12/10 04:31:58;;;;;;;101.30;31.33;;;2.00;99.90;;;;;;5076424;28;20178;-60
2022/12/10 04:34:25;;;;;;;86.37;31.93;;;2.10;99.90;;;;;;5076609;28;20189;-60
2022/12/10 04:36:54;;;;;;;109.97;33.03;;;2.40;99.90;;;;;;5076354;28;20817;-60
2022/12/10 04:39:20;;;;;;;216.80;38.67;;;2.40;99.90;;;;;;5076522;28;20178;-61
2022/12/10 04:41:50;;;;;;;114.43;32.23;;;2.30;99.90;;;;;;5076363;28;20205;-60
2022/12/10 04:44:17;;;;;;;137.23;34.03;;;2.40;99.90;;;;;;5076242;28;20182;-60
2022/12/10 04:46:42;;;;;;;103.37;32.70;;;2.40;99.90;;;;;;5076398;28;20222;-59
2022/12/10 04:49:08;;;;;;;84.73;31.40;;;2.40;99.90;;;;;;5076413;28;20669;-59
2022/12/10 04:51:34;;;;;;;134.20;33.10;;;2.30;99.90;;;;;;5076243;28;20174;-60
2022/12/10 04:54:00;;;;;;;100.70;33.70;;;2.30;99.90;;;;;;5076287;28;20182;-60
2022/12/10 04:56:26;;;;;;;153.03;35.50;;;2.30;99.90;;;;;;5076067;28;20178;-60
2022/12/10 04:58:52;;;;;;;94.50;34.27;;;2.20;99.90;;;;;;5075973;28;20646;-60
2022/12/10 05:01:20;;;;;;;153.00;35.13;;;2.20;99.90;;;;;;5076127;28;20181;-62
2022/12/10 05:03:46;;;;;;;220.33;37.17;;;2.30;99.90;;;;;;5075963;28;20213;-62
2022/12/10 05:06:14;;;;;;;119.17;32.60;;;2.00;99.90;;;;;;5076006;28;20185;-60
2022/12/10 05:08:41;;;;;;;244.50;39.27;;;1.80;99.90;;;;;;5076007;28;20174;-60
2022/12/10 05:11:10;;;;;;;79.63;30.47;;;1.70;99.90;;;;;;5075725;28;20542;-59
2022/12/10 05:13:37;;;;;;;95.53;33.77;;;2.00;99.90;;;;;;5075632;28;20181;-60
2022/12/10 05:16:04;;;;;;;132.63;33.97;;;2.10;99.90;;;;;;5075708;28;20181;-60
2022/12/10 05:18:30;;;;;;;131.00;33.87;;;2.20;99.90;;;;;;5075857;28;20227;-60
2022/12/10 05:20:59;;;;;;;77.93;31.03;;;2.10;99.90;;;;;;5075636;28;20178;-60
2022/12/10 05:23:27;;;;;;;271.77;40.00;;;2.10;99.90;;;;;;5075606;28;20259;-60
2022/12/10 05:26:12;;;;;;;104.83;31.33;;;2.00;99.90;;;;;;5075939;28;20244;-60
2022/12/10 05:28:44;;;;;;;77.17;31.00;;;2.00;99.90;;;;;;5075688;28;20264;-60
2022/12/10 05:31:13;;;;;;;85.17;32.07;;;2.00;99.90;;;;;;5075692;28;20238;-60
2022/12/10 05:33:39;;;;;;;86.60;32.60;;;2.20;99.90;;;;;;5075536;28;20181;-60
2022/12/10 05:36:05;;;;;;;152.60;37.47;;;2.30;99.90;;;;;;5074994;28;20201;-60
2022/12/10 05:38:33;;;;;;;211.77;38.97;;;2.30;99.90;;;;;;5075204;28;20201;-60
2022/12/10 05:41:12;;;;;;;89.87;31.37;;;2.10;99.90;;;;;;5075438;28;20252;-60
2022/12/10 05:43:38;;;;;;;85.60;31.20;;;2.20;99.90;;;;;;5075304;28;20216;-60
2022/12/10 05:46:11;;;;;;;95.20;31.73;;;2.20;99.90;;;;;;5075164;28;20647;-60
2022/12/10 05:48:37;;;;;;;95.93;30.53;;;2.20;99.90;;;;;;5075159;28;20166;-60
2022/12/10 05:51:04;;;;;;;108.23;32.10;;;2.30;99.90;;;;;;5075015;28;20181;-60
2022/12/10 05:53:30;;;;;;;104.77;32.20;;;2.30;99.90;;;;;;5075115;28;20184;-59
2022/12/10 05:56:08;;;;;;;80.03;30.83;;;2.30;99.90;;;;;;5075198;28;20631;-60
2022/12/10 05:58:35;;;;;;;197.67;35.03;;;2.50;99.90;;;;;;5075143;28;20170;-60
2022/12/10 06:01:06;;;;;;;80.83;30.77;;;2.30;99.90;;;;;;5074958;28;20635;-60
2022/12/10 06:03:32;;;;;;;167.33;37.67;;;2.20;99.90;;;;;;5074723;28;20259;-60
2022/12/10 06:05:57;;;;;;;82.03;30.40;;;2.30;99.90;;;;;;5074649;28;20181;-60
2022/12/10 06:08:24;;;;;;;91.50;30.37;;;2.40;99.90;;;;;;5074836;28;20210;-60
2022/12/10 06:10:49;;;;;;;150.97;34.97;;;2.50;99.90;;;;;;5074413;28;20186;-60
2022/12/10 06:13:15;;;;;;;127.60;33.03;;;2.50;99.90;;;;;;5074580;28;20778;-60
2022/12/10 06:15:42;;;;;;;97.97;30.97;;;2.50;99.90;;;;;;5074567;28;20185;-60
2022/12/10 06:18:08;;;;;;;85.97;29.43;;;2.20;99.90;;;;;;5074514;28;20547;-59
2022/12/10 06:20:36;;;;;;;71.47;28.27;;;2.00;99.90;;;;;;5074395;28;20179;-60
2022/12/10 06:23:02;;;;;;;70.23;28.30;;;2.20;99.90;;;;;;5074446;28;20221;-60
2022/12/10 06:25:28;;;;;;;86.27;30.40;;;2.40;99.90;;;;;;5074434;28;20193;-59
2022/12/10 06:27:53;;;;;;;69.67;28.63;;;2.40;99.90;;;;;;5073943;28;20189;-59
2022/12/10 06:30:19;;;;;;;117.93;30.77;;;2.30;99.90;;;;;;5074277;28;20177;-60
2022/12/10 06:32:44;;;;;;;85.20;30.00;;;2.30;99.90;;;;;;5074075;28;20235;-59
2022/12/10 06:35:10;;;;;;;76.77;28.60;;;2.20;99.90;;;;;;5074316;28;20182;-60
2022/12/10 06:37:37;;;;;;;69.37;27.27;;;2.20;99.90;;;;;;5074073;28;20178;-60
2022/12/10 06:40:03;;;;;;;62.37;26.10;;;2.40;99.90;;;;;;5073809;28;20187;-60
2022/12/10 06:42:29;;;;;;;74.30;27.50;;;2.30;99.90;;;;;;5073859;28;20262;-61
2022/12/10 06:44:55;;;;;;;68.17;26.50;;;2.30;99.90;;;;;;5073877;28;20174;-61
2022/12/10 06:47:20;;;;;;;71.60;28.13;;;2.20;99.90;;;;;;5072944;28;20178;-61
2022/12/10 06:49:46;;;;;;;91.17;29.47;;;2.10;99.90;;;;;;5073857;28;20249;-61
2022/12/10 06:52:12;;;;;;;72.00;28.30;;;2.30;99.90;;;;;;5073767;28;20189;-61
2022/12/10 06:54:37;;;;;;;71.50;27.47;;;2.20;99.90;;;;;;5072658;28;20214;-61
2022/12/10 06:57:03;;;;;;;79.60;27.50;;;2.30;99.90;;;;;;5072472;28;20186;-61
2022/12/10 06:59:29;;;;;;;115.03;31.07;;;2.10;99.90;;;;;;5073652;28;20257;-61
2022/12/10 07:01:54;;;;;;;91.63;26.47;;;1.90;99.90;;;;;;5073387;28;20271;-61
2022/12/10 07:04:20;;;;;;;72.80;25.73;;;1.80;99.90;;;;;;5073708;28;20630;-61
2022/12/10 07:06:46;;;;;;;63.67;24.93;;;1.80;99.90;;;;;;5072572;28;20589;-61
2022/12/10 07:09:12;;;;;;;85.10;26.40;;;2.00;99.90;;;;;;5073527;28;20210;-60
2022/12/10 07:11:38;;;;;;;81.63;26.57;;;2.00;99.90;;;;;;5073521;28;20548;-60
2022/12/10 07:14:04;;;;;;;69.17;25.37;;;1.90;99.90;;;;;;5073463;28;20175;-60
2022/12/10 07:16:31;;;;;;;102.37;27.17;;;1.80;99.90;;;;;;5073280;28;20177;-61
2022/12/10 07:18:59;;;;;;;80.67;26.27;;;1.80;99.90;;;;;;5071611;28;20251;-60
2022/12/10 07:21:33;;;;;;;81.93;27.50;;;1.80;99.90;;;;;;5072708;28;20260;-59
2022/12/10 07:24:05;;;;;;;78.57;27.70;;;1.80;99.90;;;;;;5073033;28;20196;-60
2022/12/10 07:26:34;;;;;;;76.67;27.07;;;1.80;99.90;;;;;;5073306;28;20536;-60
2022/12/10 07:29:01;;;;;;;65.07;23.87;;;1.60;99.90;;;;;;5072909;28;20535;-60
2022/12/10 07:31:27;;;;;;;69.67;24.03;;;1.50;99.90;;;;;;5073126;28;20189;-60
2022/12/10 07:33:54;;;;;;;119.07;24.87;;;1.60;99.90;;;;;;5071935;28;20186;-60
2022/12/10 07:36:22;;;;;;;64.10;22.20;;;1.40;99.90;;;;;;5071850;28;20181;-60
2022/12/10 07:38:48;;;;;;;62.40;22.80;;;1.40;99.90;;;;;;5072786;28;20531;-60
2022/12/10 07:41:15;;;;;;;53.17;22.97;;;1.50;99.90;;;;;;5072363;28;20177;-59
2022/12/10 07:43:42;;;;;;;50.77;23.03;;;1.80;99.90;;;;;;5070628;28;20729;-60
2022/12/10 07:46:15;;;;;;;59.17;23.50;;;2.00;99.90;;;;;;5070349;28;20178;-60
2022/12/10 07:48:42;;;;;;;66.70;23.63;;;2.00;99.90;;;;;;5071611;28;20183;-60
2022/12/10 07:51:08;;;;;;;60.90;23.97;;;2.10;99.90;;;;;;5071084;28;20178;-60
2022/12/10 07:53:34;;;;;;;57.73;23.23;;;2.20;99.90;;;;;;5072686;28;20181;-60
2022/12/10 07:56:00;;;;;;;74.43;24.40;;;2.10;99.90;;;;;;5072550;28;20232;-60
2022/12/10 07:58:26;;;;;;;61.67;22.57;;;2.00;99.90;;;;;;5072898;28;20179;-61
2022/12/10 08:00:52;;;;;;;90.10;24.53;;;1.80;99.90;;;;;;5077074;28;20179;-60
2022/12/10 08:03:18;;;;;;;85.40;24.43;;;1.80;99.90;;;;;;5076836;28;20213;-60
2022/12/10 08:05:44;;;;;;;51.93;21.07;;;1.70;99.90;;;;;;5076909;28;20182;-60
2022/12/10 08:08:09;;;;;;;73.30;21.93;;;1.80;99.90;;;;;;5076866;28;20644;-60
2022/12/10 08:10:36;;;;;;;52.27;22.83;;;1.90;99.90;;;;;;5076679;28;20645;-60
2022/12/10 08:13:02;;;;;;;84.47;26.90;;;2.10;99.90;;;;;;5076671;28;20273;-60
2022/12/10 08:15:28;;;;;;;78.87;27.63;;;2.00;99.90;;;;;;5077201;28;20219;-60
2022/12/10 08:17:54;;;;;;;72.50;26.57;;;2.10;99.90;;;;;;5075284;28;20181;-59
2022/12/10 08:20:20;;;;;;;98.37;23.23;;;2.10;99.90;;;;;;5075114;28;20223;-60
2022/12/10 08:22:46;;;;;;;60.20;21.80;;;2.00;99.90;;;;;;5075614;28;20210;-60
2022/12/10 08:25:12;;;;;;;64.80;21.30;;;2.10;99.90;;;;;;5075397;28;20551;-61
2022/12/10 08:27:37;;;;;;;58.50;20.73;;;2.10;99.90;;;;;;5075975;28;20185;-60
2022/12/10 08:30:03;;;;;;;75.30;23.57;;;2.10;99.90;;;;;;5076344;28;20193;-60
2022/12/10 08:32:29;;;;;;;87.93;23.97;;;2.10;99.90;;;;;;5076546;28;20650;-59
2022/12/10 08:34:55;;;;;;;52.93;21.57;;;2.10;99.90;;;;;;5076510;28;20275;-60
2022/12/10 08:37:21;;;;;;;64.30;23.00;;;2.20;99.90;;;;;;5076395;28;20170;-60
2022/12/10 08:39:47;;;;;;;75.93;24.83;;;2.40;99.90;;;;;;5075788;28;20623;-60
2022/12/10 08:42:13;;;;;;;69.23;23.70;;;2.50;99.90;;;;;;5075040;28;20220;-60
2022/12/10 08:44:38;;;;;;;58.90;22.80;;;2.50;99.90;;;;;;5076461;28;20572;-60
2022/12/10 08:47:04;;;;;;;87.67;23.20;;;2.40;99.90;;;;;;5076315;28;20516;-60
2022/12/10 08:49:30;;;;;;;51.80;20.60;;;2.30;99.90;;;;;;5076457;28;20213;-60
2022/12/10 08:51:58;;;;;;;62.60;19.73;;;2.20;99.90;;;;;;5076184;28;20193;-60
2022/12/10 08:54:24;;;;;;;66.20;21.17;;;2.20;99.90;;;;;;5075937;28;20180;-60
2022/12/10 08:56:49;;;;;;;56.17;20.70;;;2.10;99.90;;;;;;5076243;28;20188;-60
2022/12/10 08:59:15;;;;;;;42.03;19.87;;;2.00;99.90;;;;;;5076118;28;20658;-60
2022/12/10 09:01:41;;;;;;;50.97;19.97;;;2.10;99.90;;;;;;5076034;28;20598;-60
2022/12/10 09:04:07;;;;;;;99.97;21.70;;;2.10;99.90;;;;;;5075990;28;20172;-60
2022/12/10 09:06:33;;;;;;;43.50;19.37;;;1.90;99.90;;;;;;5075754;28;20193;-60
2022/12/10 09:08:59;;;;;;;44.07;19.00;;;1.90;99.90;;;;;;5075717;28;20186;-60
2022/12/10 09:11:31;;;;;;;49.83;20.37;;;2.10;99.90;;;;;;5074566;28;20181;-60
2022/12/10 09:13:57;;;;;;;54.20;20.97;;;2.40;99.90;;;;;;5075900;28;20280;-60
2022/12/10 09:16:29;;;;;;;52.63;19.93;;;2.40;99.90;;;;;;5075833;28;20621;-60
2022/12/10 09:18:55;;;;;;;96.70;22.00;;;2.50;99.90;;;;;;5075554;28;20181;-60
2022/12/10 09:21:21;;;;;;;58.80;19.97;;;2.40;99.90;;;;;;5075384;28;20639;-60
2022/12/10 09:23:46;;;;;;;46.80;18.83;;;2.40;99.90;;;;;;5075739;28;20266;-60
2022/12/10 09:26:15;;;;;;;57.43;20.53;;;2.50;99.90;;;;;;5075961;28;20197;-60
2022/12/10 09:28:41;;;;;;;63.93;20.00;;;2.50;99.90;;;;;;5075693;28;20638;-60
2022/12/10 09:31:07;;;;;;;48.63;18.33;;;2.30;99.90;;;;;;5075480;28;20182;-60
2022/12/10 09:33:34;;;;;;;44.93;20.00;;;2.30;99.90;;;;;;5075432;28;20698;-60
2022/12/10 09:36:01;;;;;;;52.20;19.93;;;2.50;99.90;;;;;;5075361;28;20176;-60
2022/12/10 09:38:27;;;;;;;87.33;21.43;;;2.50;99.90;;;;;;5075531;28;20200;-60
2022/12/10 09:41:34;;;;;;;51.53;20.17;;;2.60;99.90;;;;;;5075516;28;20177;-60
2022/12/10 09:44:16;;;;;;;48.10;20.50;;;2.70;99.90;;;;;;5075250;28;20244;-60
2022/12/10 09:46:57;;;;;;;77.00;20.93;;;2.80;99.90;;;;;;5075413;28;20257;-60
2022/12/10 09:50:00;;;;;;;52.40;20.20;;;2.80;99.90;;;;;;5075601;28;20638;-60
2022/12/10 09:52:34;;;;;;;48.90;20.83;;;3.00;99.90;;;;;;5075267;28;20708;-60
2022/12/10 09:55:15;;;;;;;49.63;20.63;;;3.00;99.90;;;;;;5075391;28;20179;-60
2022/12/10 09:57:49;;;;;;;46.33;20.03;;;3.10;99.90;;;;;;5074981;28;20528;-60
2022/12/10 10:00:20;;;;;;;42.17;20.10;;;3.00;99.90;;;;;;5075039;28;20613;-60
2022/12/10 10:02:46;;;;;;;55.20;20.63;;;2.90;99.90;;;;;;5074815;28;20238;-60
2022/12/10 10:05:34;;;;;;;52.10;20.63;;;3.20;99.90;;;;;;5074802;28;20235;-60
2022/12/10 10:08:06;;;;;;;50.97;20.60;;;3.30;99.90;;;;;;5074731;28;20241;-60
2022/12/10 10:10:38;;;;;;;47.37;21.33;;;3.40;99.90;;;;;;5075111;28;20209;-60
2022/12/10 10:13:07;;;;;;;47.17;21.57;;;3.50;99.90;;;;;;5074787;28;20170;-61
2022/12/10 10:15:34;;;;;;;70.13;22.20;;;3.40;99.90;;;;;;5074586;28;20656;-60
2022/12/10 10:18:23;;;;;;;57.80;22.20;;;3.20;99.90;;;;;;5074620;28;20213;-60
2022/12/10 10:20:49;;;;;;;44.47;21.17;;;3.30;99.90;;;;;;5074735;28;20169;-61
2022/12/10 10:23:16;;;;;;;46.17;20.73;;;3.50;99.90;;;;;;5074036;28;20687;-60
2022/12/10 10:25:43;;;;;;;46.53;22.33;;;3.20;99.90;;;;;;5074734;28;20244;-60
2022/12/10 10:28:21;;;;;;;44.03;21.20;;;3.30;99.90;;;;;;5074237;28;20567;-61
2022/12/10 10:30:48;;;;;;;49.80;21.17;;;3.60;99.90;;;;;;5074460;28;20173;-60
2022/12/10 10:33:15;;;;;;;48.40;21.93;;;3.70;99.90;;;;;;5074464;28;20184;-60
2022/12/10 10:36:02;;;;;;;49.47;20.97;;;3.60;99.90;;;;;;5074610;28;20206;-60
2022/12/10 10:38:29;;;;;;;66.83;21.50;;;3.50;99.90;;;;;;5074189;28;20167;-60
2022/12/10 10:41:00;;;;;;;41.63;20.03;;;3.20;99.90;;;;;;5074251;28;20206;-60
2022/12/10 10:43:34;;;;;;;66.47;23.05;;;3.50;99.90;;;;;;5074150;28;20219;-60
2022/12/10 10:46:26;;;;;;;54.73;21.80;;;3.70;99.90;;;;;;5074191;28;20170;-60
2022/12/10 10:48:51;;;;;;;59.97;23.17;;;3.60;99.90;;;;;;5073932;28;20166;-60
2022/12/10 10:51:23;;;;;;;55.67;22.73;;;3.40;99.90;;;;;;5074103;28;20653;-60
2022/12/10 10:53:52;;;;;;;127.47;25.80;;;3.40;99.90;;;;;;5074053;28;20186;-60
2022/12/10 10:56:31;;;;;;;58.40;22.87;;;3.30;99.90;;;;;;5074048;28;20222;-60
2022/12/10 10:59:05;;;;;;;55.90;24.03;;;3.40;99.90;;;;;;5073845;28;20167;-60
2022/12/10 11:01:52;;;;;;;96.80;26.90;;;3.80;99.90;;;;;;5073644;28;20177;-60
2022/12/10 11:04:44;;;;;;;55.67;22.90;;;3.70;99.90;;;;;;5074144;28;20673;-60
2022/12/10 11:07:22;;;;;;;79.20;24.65;;;3.70;99.90;;;;;;5073845;28;20176;-60
2022/12/10 11:09:49;;;;;;;55.17;23.02;;;3.90;99.90;;;;;;5073408;28;20641;-61
2022/12/10 11:12:37;;;;;;;173.65;28.88;;;4.00;99.90;;;;;;5073743;28;20171;-61
2022/12/10 11:15:23;;;;;;;77.53;27.00;;;3.90;99.90;;;;;;5073693;28;20527;-61
2022/12/10 11:17:54;;;;;;;57.08;23.00;;;4.00;99.90;;;;;;5072955;28;20655;-61
2022/12/10 11:20:23;;;;;;;57.47;24.17;;;4.10;99.90;;;;;;5073379;28;20218;-61
2022/12/10 11:22:55;;;;;;;78.18;27.80;;;4.10;99.90;;;;;;5073512;28;20206;-60
2022/12/10 11:25:37;;;;;;;78.32;24.85;;;4.20;99.90;;;;;;5073444;28;20197;-60
2022/12/10 11:28:18;;;;;;;56.67;24.70;;;3.90;99.90;;;;;;5073417;28;20300;-61
2022/12/10 11:31:02;;;;;;;64.37;24.10;;;3.90;99.90;;;;;;5073243;28;20538;-60
2022/12/10 11:33:41;;;;;;;111.07;26.45;;;3.80;99.90;;;;;;5072920;28;20541;-60
2022/12/10 11:36:30;;;;;;;87.03;25.92;;;3.70;99.90;;;;;;5073292;28;20631;-60
2022/12/10 11:39:37;;;;;;;94.53;25.88;;;3.90;99.90;;;;;;5073254;28;20174;-60
2022/12/10 11:42:33;;;;;;;118.38;28.10;;;3.90;99.90;;;;;;5050850;28;20221;-61
2022/12/10 11:45:16;;;;;;;104.63;26.47;;;3.80;99.90;;;;;;5072703;28;20310;-61
2022/12/10 11:48:07;;;;;;;80.68;25.00;;;3.70;99.90;;;;;;5073067;28;20623;-60
2022/12/10 11:50:53;;;;;;;65.90;23.85;;;3.90;99.90;;;;;;5073265;28;20170;-61
2022/12/10 11:53:33;;;;;;;62.88;23.25;;;4.00;99.90;;;;;;5073098;28;20180;-60
2022/12/10 11:56:08;;;;;;;67.37;23.47;;;4.00;99.90;;;;;;5073284;28;20197;-61
2022/12/10 11:58:55;;;;;;;65.97;24.90;;;4.20;99.90;;;;;;5073164;28;20630;-61
2022/12/10 12:01:23;;;;;;;103.78;27.33;;;4.20;99.90;;;;;;5073027;28;20201;-61
2022/12/10 12:04:04;;;;;;;68.70;24.93;;;4.10;99.90;;;;;;5072853;28;20216;-61
2022/12/10 12:06:41;;;;;;;53.35;24.00;;;4.10;99.90;;;;;;5073306;28;20162;-60
2022/12/10 12:09:16;;;;;;;79.88;25.40;;;4.20;99.90;;;;;;5073032;28;20692;-61
2022/12/10 12:12:09;;;;;;;68.80;25.08;;;4.20;99.90;;;;;;5072893;28;20178;-61
2022/12/10 12:15:04;;;;;;;74.45;26.00;;;4.30;99.90;;;;;;5073060;28;20205;-61
2022/12/10 12:17:39;;;;;;;61.40;22.73;;;4.00;99.90;;;;;;5072861;28;20162;-61
2022/12/10 12:20:24;;;;;;;103.55;25.20;;;4.20;99.90;;;;;;5072839;28;20182;-60
2022/12/10 12:23:00;;;;;;;69.13;24.05;;;4.40;99.90;;;;;;5072691;28;20280;-61
2022/12/10 12:25:36;;;;;;;58.17;23.80;;;4.40;99.90;;;;;;5072905;28;20202;-61
2022/12/10 12:28:05;;;;;;;60.60;23.27;;;4.30;99.90;;;;;;5072503;28;20181;-61
2022/12/10 12:30:34;;;;;;;63.17;24.63;;;4.30;99.90;;;;;;5072215;28;20565;-60
2022/12/10 12:33:31;;;;;;;67.95;26.55;;;4.50;99.90;;;;;;5072064;28;20185;-61
2022/12/10 12:36:20;;;;;;;59.08;23.83;;;4.40;99.90;;;;;;5072506;28;20257;-63
2022/12/10 12:38:53;;;;;;;72.95;27.75;;;4.60;99.90;;;;;;5072672;28;20570;-61
2022/12/10 12:41:51;;;;;;;70.30;31.88;;;4.70;99.90;;;;;;5072573;28;20217;-61
2022/12/10 12:44:33;;;;;;;71.78;27.25;;;4.60;99.90;;;;;;5063962;28;20251;-63
2022/12/10 12:47:15;;;;;;;58.50;24.45;;;4.60;99.90;;;;;;5076500;28;20174;-61
2022/12/10 12:49:42;;;;;;;105.27;27.00;;;4.60;99.90;;;;;;5076328;28;20164;-61
2022/12/10 12:52:17;;;;;;;58.75;24.10;;;4.50;99.90;;;;;;5076405;28;20189;-61
2022/12/10 12:54:43;;;;;;;86.33;23.80;;;4.60;99.90;;;;;;5076285;28;20533;-60
2022/12/10 12:57:24;;;;;;;58.33;22.65;;;4.40;99.90;;;;;;5076226;28;20181;-61
2022/12/10 13:00:02;;;;;;;71.30;26.13;;;4.50;99.90;;;;;;5076113;28;20200;-60
2022/12/10 13:03:05;;;;;;;61.17;25.42;;;4.70;99.90;;;;;;5075948;28;20566;-60